• Join FlightAware (Why Join?)
  • Login
  • US Flag 
12:39AM EDT


 

Airport Tracker/Info


-or-


 

Live Flight TrackerFlight Track Log ✈ THY2470 ✈ 22-May-2013 ✈ LTBA / IST - LTAF / ADA

Flight Track Log - Related Links

Times and Time Zones

All times are in EDT time to prevent confusion due to time zone crossing. See the THY2470 flight status page for this flight to view local times or setup timezone preferences in your user account.

Time Position Orientation Groundspeed Altitude Reporting Facility
EDT Latitude Longitude Course Direction KTS MPH feet Rate Location/Type
01:52PM 40.2203 30.1497 126° Southeast  Level Estimated
01:53PM 40.1508 30.2690 127° Southeast  Level Estimated
01:54PM 40.0812 30.3880 127° Southeast  Level Estimated
01:55PM 40.0114 30.5068 127° Southeast  Level Estimated
01:56PM 39.9415 30.6254 128° Southeast  Level Estimated
01:57PM 39.8715 30.7437 128° Southeast  Level Estimated
01:58PM 39.8014 30.8618 128° Southeast  Level Estimated
01:59PM 39.7311 30.9797 128° Southeast  Level Estimated
02:00PM 39.6608 31.0972 128° Southeast  Level Estimated
02:01PM 39.5903 31.2146 128° Southeast  Level Estimated
02:02PM 39.5197 31.3317 128° Southeast  Level Estimated
02:03PM 39.4489 31.4486 128° Southeast  Level Estimated
02:04PM 39.3781 31.5653 128° Southeast  Level Estimated
02:05PM 39.3072 31.6817 128° Southeast  Level Estimated
02:06PM 39.2361 31.7979 128° Southeast  Level Estimated
02:07PM 39.1649 31.9138 128° Southeast  Level Estimated
02:08PM 39.0936 32.0295 128° Southeast  Level Estimated
02:09PM 39.0222 32.1450 128° Southeast  Level Estimated
02:10PM 38.9506 32.2602 129° Southeast  Level Estimated
02:11PM 38.8790 32.3752 129° Southeast  Level Estimated
02:12PM 38.8073 32.4900 129° Southeast  Level Estimated
02:13PM 38.7354 32.6045 129° Southeast  Level Estimated
02:14PM 38.6634 32.7188 129° Southeast  Level Estimated
02:15PM 38.5913 32.8329 129° Southeast  Level Estimated
02:16PM 38.5191 32.9468 129° Southeast  Level Estimated
02:17PM 38.4468 33.0604 129° Southeast  Level Estimated
02:18PM 38.3744 33.1738 129° Southeast  Level Estimated
02:19PM 38.3019 33.2870 129° Southeast  Level Estimated
02:20PM 38.2292 33.3999 129° Southeast  Level Estimated
02:21PM 38.1565 33.5126 129° Southeast  Level Estimated
02:22PM 38.0836 33.6251 129° Southeast  Level Estimated
02:23PM 38.0107 33.7374 129° Southeast  Level Estimated
02:24PM 37.9376 33.8494 130° Southeast  Level Estimated
02:25PM 37.8644 33.9613 130° Southeast  Level Estimated
02:26PM 37.7912 34.0729 130° Southeast  Level Estimated
02:27PM 37.7178 34.1842 130° Southeast  Level Estimated
02:28PM 37.6443 34.2954 130° Southeast  Level Estimated
02:29PM 37.5707 34.4063 130° Southeast  Level Estimated
02:30PM 37.4970 34.5171 130° Southeast  Level Estimated
02:31PM 37.4232 34.6276 130° Southeast  Level Estimated
02:32PM 37.3493 34.7379 130° Southeast  Level Estimated
02:33PM 37.2753 34.8479 130° Southeast  Level Estimated
02:34PM 37.2012 34.9578 130° Southeast  Level Estimated
02:35PM 37.1270 35.0674 130° Southeast  Level Estimated
02:36PM 37.0527 35.1768 130° Southeast  Level Estimated
02:37PM 36.9822 35.2804 130° Southeast  Level Estimated
02:38PM 36.9822 35.2804 202° Southwest  Level Estimated
02:39PM 36.9822 35.2804 202° Southwest  Level Estimated
02:40PM 36.9822 35.2804 202° Southwest  Level Estimated
02:41PM 36.9822 35.2804 202° Southwest  Level Estimated
02:42PM 36.9822 35.2804 202° Southwest  Level Estimated
02:43PM 36.9822 35.2804 202° Southwest  Level Estimated
02:44PM 36.9822 35.2804 202° Southwest  Level Estimated
02:45PM 36.9822 35.2804 202° Southwest  Level Estimated
02:46PM 36.9822 35.2804 202° Southwest  Level Estimated
02:47PM 36.9822 35.2804 202° Southwest  Level Estimated
02:48PM 36.9822 35.2804 202° Southwest  Level Estimated
02:49PM 36.9822 35.2804 202° Southwest  Level Estimated
02:50PM 36.9822 35.2804 202° Southwest  Level Estimated
02:51PM 36.9822 35.2804 202° Southwest  Level Estimated
02:52PM 36.9822 35.2804 202° Southwest  Level Estimated
02:53PM 36.9822 35.2804 202° Southwest  Level Estimated